Time;durP1;ratioP1;P1;durP2;ratioP2;P2;SDS_P1;SDS_P2;PMS_P1;PMS_P2;Temp;Humidity;BMP_temperature;BMP_pressure;BME280_temperature;BME280_humidity;BME280_pressure;Samples;Min_cycle;Max_cycle;Signal;HPM_P1;HPM_P2
2023/05/24 00:01:46;;;;;;;1.07;0.97;;;10.30;99.90;;;;;;4975588;28;20250;-90
2023/05/24 00:04:13;;;;;;;8.33;1.10;;;10.30;99.90;;;;;;4975793;28;20195;-87
2023/05/24 00:06:40;;;;;;;9.00;1.83;;;10.30;99.90;;;;;;4991043;28;20216;-88
2023/05/24 00:09:06;;;;;;;1.60;1.50;;;10.30;99.90;;;;;;4992214;28;20223;-90
2023/05/24 00:11:32;;;;;;;2.00;0.50;;;10.30;99.90;;;;;;4974873;28;20216;-88
2023/05/24 00:13:58;;;;;;;0.87;0.50;;;10.30;99.90;;;;;;4974923;28;20181;-89
2023/05/24 00:16:24;;;;;;;0.13;0.13;;;10.30;99.90;;;;;;4991528;28;20212;-89
2023/05/24 00:18:51;;;;;;;0.47;0.47;;;10.30;99.90;;;;;;4975033;28;20227;-92
2023/05/24 00:21:17;;;;;;;0.60;0.60;;;10.40;99.90;;;;;;5007366;28;20311;-89
2023/05/24 00:23:42;;;;;;;5.73;2.20;;;10.40;99.90;;;;;;4991918;28;20298;-90
2023/05/24 00:26:08;;;;;;;3.10;0.97;;;10.40;99.90;;;;;;4958794;28;20299;-90
2023/05/24 00:28:34;;;;;;;1.57;1.07;;;10.30;99.90;;;;;;4959231;28;20185;-90
2023/05/24 00:31:01;;;;;;;1.63;0.97;;;10.20;99.90;;;;;;4990359;28;20360;-89
2023/05/24 00:33:27;;;;;;;6.63;1.23;;;10.20;99.90;;;;;;4991352;28;20224;-89
2023/05/24 00:35:56;;;;;;;3.50;0.87;;;10.20;99.90;;;;;;4990846;28;20235;-89
2023/05/24 00:38:22;;;;;;;1.50;0.70;;;10.20;99.90;;;;;;4974672;28;20228;-89
2023/05/24 00:40:48;;;;;;;2.40;1.07;;;10.20;99.90;;;;;;4990572;28;20251;-87
2023/05/24 00:43:15;;;;;;;6.10;2.23;;;10.30;99.90;;;;;;4974634;28;20188;-88
2023/05/24 00:45:40;;;;;;;9.00;1.17;;;10.30;99.90;;;;;;4990117;28;20231;-86
2023/05/24 00:48:07;;;;;;;2.93;1.80;;;10.40;99.90;;;;;;4990369;28;20220;-89
2023/05/24 00:50:33;;;;;;;5.90;1.73;;;10.40;99.90;;;;;;4989607;28;20293;-89
2023/05/24 00:53:01;;;;;;;3.60;1.80;;;10.30;99.90;;;;;;4974332;28;20180;-89
2023/05/24 00:55:28;;;;;;;1.23;1.13;;;10.30;99.90;;;;;;4991015;28;20269;-89
2023/05/24 00:57:57;;;;;;;2.07;1.87;;;10.30;99.90;;;;;;4990017;28;20224;-87
2023/05/24 01:00:24;;;;;;;1.20;1.10;;;10.40;99.90;;;;;;4989240;28;20223;-90
2023/05/24 01:02:50;;;;;;;2.77;0.90;;;10.30;99.90;;;;;;4989391;28;20267;-90
2023/05/24 01:05:16;;;;;;;1.13;1.07;;;10.30;99.90;;;;;;4973344;28;20215;-89
2023/05/24 01:08:08;;;;;;;2.37;2.00;;;10.30;99.90;;;;;;4990590;28;20267;-88
2023/05/24 01:10:55;;;;;;;4.57;1.80;;;10.30;99.90;;;;;;4991403;28;20249;-88
2023/05/24 01:13:35;;;;;;;0.40;0.40;;;10.30;99.90;;;;;;4990590;28;20665;-86
2023/05/24 01:16:16;;;;;;;1.17;1.07;;;10.30;99.90;;;;;;4990118;28;20230;-89
2023/05/24 01:18:59;;;;;;;8.33;1.83;;;10.30;99.90;;;;;;4990040;28;20680;-89
2023/05/24 01:21:55;;;;;;;1.67;1.57;;;10.30;99.90;;;;;;4989547;28;20226;-89
2023/05/24 01:25:02;;;;;;;2.23;0.60;;;10.30;99.90;;;;;;4989065;28;20683;-89
2023/05/24 01:27:30;;;;;;;11.77;1.30;;;10.20;99.90;;;;;;4989788;28;20798;-86
2023/05/24 01:29:58;;;;;;;9.70;0.70;;;10.20;99.90;;;;;;4986184;28;20245;-89
2023/05/24 01:32:24;;;;;;;2.73;1.97;;;10.20;99.90;;;;;;4950378;28;20603;-89
2023/05/24 01:34:50;;;;;;;2.43;1.00;;;10.20;99.90;;;;;;4922546;28;20217;-88
2023/05/24 01:37:16;;;;;;;2.07;1.07;;;10.30;99.90;;;;;;4938882;28;20272;-89
2023/05/24 01:39:42;;;;;;;2.90;1.87;;;10.20;99.90;;;;;;4969218;28;20259;-89
2023/05/24 01:42:26;;;;;;;1.07;1.07;;;10.20;99.90;;;;;;4938611;28;20220;-89
2023/05/24 01:45:20;;;;;;;1.50;0.77;;;10.20;99.90;;;;;;4970220;28;20243;-88
2023/05/24 01:48:18;;;;;;;1.17;0.73;;;10.30;99.90;;;;;;4969858;28;20220;-88
2023/05/24 01:50:57;;;;;;;5.00;0.57;;;10.30;99.90;;;;;;4971772;28;20213;-88
2023/05/24 01:53:30;;;;;;;1.50;1.40;;;10.30;99.90;;;;;;4970468;28;20232;-88
2023/05/24 01:55:57;;;;;;;1.13;0.93;;;10.30;99.90;;;;;;4970170;28;20200;-89
2023/05/24 01:58:25;;;;;;;7.03;1.10;;;10.20;99.90;;;;;;4971076;28;20189;-88
2023/05/24 02:00:52;;;;;;;5.37;1.03;;;10.20;99.90;;;;;;4970516;28;20255;-88
2023/05/24 02:03:18;;;;;;;2.63;2.27;;;10.20;99.90;;;;;;4922697;28;20271;-88
2023/05/24 02:05:45;;;;;;;3.67;1.03;;;10.10;99.90;;;;;;4954301;28;20225;-88
2023/05/24 02:08:11;;;;;;;10.83;1.63;;;10.10;99.90;;;;;;4971394;28;20303;-88
2023/05/24 02:10:38;;;;;;;0.33;0.33;;;10.00;99.90;;;;;;4955130;28;20236;-89
2023/05/24 02:13:05;;;;;;;0.37;0.37;;;10.00;99.90;;;;;;4970065;28;20788;-89
2023/05/24 02:15:31;;;;;;;1.47;0.80;;;10.00;99.90;;;;;;4922296;28;20698;-88
2023/05/24 02:17:57;;;;;;;0.47;0.47;;;10.00;99.90;;;;;;4970896;28;20312;-88
2023/05/24 02:20:23;;;;;;;8.63;1.40;;;10.00;99.90;;;;;;4941687;28;20240;-89
2023/05/24 02:22:49;;;;;;;2.50;0.80;;;9.90;99.90;;;;;;4940781;28;20216;-88
2023/05/24 02:25:15;;;;;;;5.53;2.77;;;9.90;99.90;;;;;;4973886;28;20185;-88
2023/05/24 02:27:45;;;;;;;3.27;0.60;;;9.90;99.90;;;;;;4957776;28;20228;-89
2023/05/24 02:30:12;;;;;;;3.80;0.87;;;10.00;99.90;;;;;;4980923;28;20248;-90
2023/05/24 02:32:38;;;;;;;1.50;0.73;;;10.00;99.90;;;;;;4993022;28;20224;-88
2023/05/24 02:35:04;;;;;;;2.00;0.60;;;10.00;99.90;;;;;;4992703;28;20231;-88
2023/05/24 02:37:30;;;;;;;0.43;0.43;;;10.00;99.90;;;;;;4994412;28;20348;-87
2023/05/24 02:39:56;;;;;;;0.50;0.50;;;10.00;99.90;;;;;;4976524;28;20260;-88
2023/05/24 02:42:21;;;;;;;0.73;0.73;;;10.00;99.90;;;;;;4976315;28;20788;-88
2023/05/24 02:44:48;;;;;;;0.90;0.90;;;10.00;99.90;;;;;;4976964;28;20335;-87
2023/05/24 02:47:14;;;;;;;2.47;2.30;;;10.10;99.90;;;;;;4992846;28;20220;-86
2023/05/24 02:49:40;;;;;;;0.83;0.83;;;10.10;99.90;;;;;;4976945;28;20648;-87
2023/05/24 02:52:06;;;;;;;1.50;0.60;;;10.00;99.90;;;;;;4992737;28;20299;-87
2023/05/24 02:54:31;;;;;;;0.60;0.60;;;10.00;99.90;;;;;;4976067;28;20811;-87
2023/05/24 02:56:57;;;;;;;0.37;0.37;;;10.00;99.90;;;;;;4991832;28;20247;-89
2023/05/24 02:59:23;;;;;;;1.03;1.03;;;9.90;99.90;;;;;;4975108;28;20223;-88
2023/05/24 03:01:49;;;;;;;0.40;0.40;;;9.90;99.90;;;;;;4991263;28;20176;-90
2023/05/24 03:04:15;;;;;;;7.93;0.97;;;10.00;99.90;;;;;;4991888;28;20182;-87
2023/05/24 03:06:41;;;;;;;1.53;1.40;;;10.00;99.90;;;;;;4974451;28;20223;-88
2023/05/24 03:09:08;;;;;;;1.43;1.33;;;9.90;99.90;;;;;;5007278;28;20274;-88
2023/05/24 03:11:33;;;;;;;0.70;0.63;;;10.00;99.90;;;;;;4991289;28;20223;-86
2023/05/24 03:13:59;;;;;;;4.90;1.13;;;10.00;99.90;;;;;;4992138;28;20738;-89
2023/05/24 03:16:25;;;;;;;0.30;0.30;;;9.90;99.90;;;;;;4976524;28;20214;-87
2023/05/24 03:18:52;;;;;;;2.53;0.87;;;10.00;99.90;;;;;;4959759;28;20570;-88
2023/05/24 03:21:19;;;;;;;1.33;1.20;;;10.10;99.90;;;;;;4960341;28;20236;-90
2023/05/24 03:23:45;;;;;;;0.57;0.57;;;10.10;99.90;;;;;;4975639;28;20303;-88
2023/05/24 03:26:12;;;;;;;2.83;0.97;;;10.10;99.90;;;;;;4975667;28;20700;-88
2023/05/24 03:28:39;;;;;;;2.10;0.80;;;10.10;99.90;;;;;;4975707;28;20185;-87
2023/05/24 03:31:05;;;;;;;5.60;1.67;;;10.20;99.90;;;;;;4974261;28;20247;-88
2023/05/24 03:33:31;;;;;;;3.80;0.80;;;10.20;99.90;;;;;;4958656;28;20223;-85
2023/05/24 03:35:57;;;;;;;0.50;0.50;;;10.30;99.90;;;;;;4974201;28;20224;-88
2023/05/24 03:38:23;;;;;;;4.53;1.10;;;10.20;99.90;;;;;;4974105;28;20677;-89
2023/05/24 03:40:49;;;;;;;1.40;0.73;;;10.20;99.90;;;;;;4974560;28;20215;-87
2023/05/24 03:43:15;;;;;;;10.37;2.47;;;10.10;99.90;;;;;;4975546;28;20188;-89
2023/05/24 03:45:41;;;;;;;0.33;0.33;;;10.10;99.90;;;;;;4990125;28;20739;-89
2023/05/24 03:48:07;;;;;;;1.03;1.03;;;10.20;99.90;;;;;;4974117;28;20227;-90
2023/05/24 03:50:33;;;;;;;4.90;1.00;;;10.30;99.90;;;;;;4989643;28;20208;-88
2023/05/24 03:52:59;;;;;;;2.13;1.90;;;10.20;99.90;;;;;;4973394;28;20235;-88
2023/05/24 03:55:25;;;;;;;0.70;0.70;;;10.20;99.90;;;;;;4990182;28;20208;-87
2023/05/24 03:57:50;;;;;;;3.13;2.17;;;10.20;99.90;;;;;;4989357;28;20314;-87
2023/05/24 04:00:16;;;;;;;1.63;1.53;;;10.20;99.90;;;;;;4973366;28;20222;-88
2023/05/24 04:02:42;;;;;;;1.97;1.77;;;10.20;99.90;;;;;;4973478;28;20686;-87
2023/05/24 04:05:09;;;;;;;5.00;1.27;;;10.30;99.90;;;;;;4957276;28;20243;-87
2023/05/24 04:07:38;;;;;;;3.40;0.97;;;10.30;99.90;;;;;;4990230;28;20180;-90
2023/05/24 04:10:06;;;;;;;6.87;1.03;;;10.30;99.90;;;;;;4990313;28;20212;-91
2023/05/24 04:12:32;;;;;;;2.97;0.87;;;10.30;99.90;;;;;;4974320;28;20274;-90
2023/05/24 04:14:59;;;;;;;3.13;1.50;;;10.30;99.90;;;;;;4974628;28;20246;-87
2023/05/24 04:17:26;;;;;;;5.83;0.93;;;10.30;99.90;;;;;;4990890;28;20212;-87
2023/05/24 04:19:52;;;;;;;5.73;2.07;;;10.30;99.90;;;;;;4991087;28;20245;-87
2023/05/24 04:22:18;;;;;;;1.60;1.50;;;10.40;99.90;;;;;;4975866;28;20184;-87
2023/05/24 04:24:44;;;;;;;0.70;0.70;;;10.40;99.90;;;;;;4990439;28;20230;-90
2023/05/24 04:27:10;;;;;;;10.00;0.73;;;10.50;99.90;;;;;;4973212;28;20243;-87
2023/05/24 04:29:38;;;;;;;10.83;1.00;;;10.50;99.90;;;;;;4975622;28;20255;-88
2023/05/24 04:32:05;;;;;;;3.50;1.70;;;10.50;99.90;;;;;;5009638;28;20313;-89
2023/05/24 04:34:34;;;;;;;6.90;2.63;;;10.50;99.90;;;;;;5009165;28;20211;-88
2023/05/24 04:37:00;;;;;;;0.60;0.60;;;10.50;99.90;;;;;;4992699;28;20227;-87
2023/05/24 04:39:28;;;;;;;0.47;0.47;;;10.50;99.90;;;;;;4959871;28;20215;-87
2023/05/24 04:41:56;;;;;;;0.47;0.47;;;10.50;99.90;;;;;;4975541;28;20895;-90
2023/05/24 04:44:23;;;;;;;2.07;1.07;;;10.60;99.90;;;;;;4976047;28;20738;-89
2023/05/24 04:46:49;;;;;;;4.07;1.20;;;10.50;99.90;;;;;;4992566;28;20708;-88
2023/05/24 04:49:15;;;;;;;2.27;1.97;;;10.60;99.90;;;;;;5010886;28;20270;-87
2023/05/24 04:51:41;;;;;;;2.57;1.40;;;10.60;99.90;;;;;;5008683;28;20294;-87
2023/05/24 04:54:09;;;;;;;1.27;0.60;;;10.70;99.90;;;;;;4993486;28;20789;-87
2023/05/24 04:56:37;;;;;;;13.40;1.27;;;10.70;99.90;;;;;;4992831;28;20700;-86
2023/05/24 04:59:04;;;;;;;2.47;1.43;;;10.80;99.90;;;;;;4977144;28;22758;-88
2023/05/24 05:01:31;;;;;;;3.10;0.80;;;10.80;99.90;;;;;;5010852;28;20183;-88
2023/05/24 05:03:59;;;;;;;6.90;2.57;;;10.80;99.90;;;;;;4993308;28;20223;-87
2023/05/24 05:06:25;;;;;;;0.40;0.40;;;11.00;99.90;;;;;;4977444;28;20223;-88
2023/05/24 05:08:51;;;;;;;5.17;0.70;;;11.10;99.90;;;;;;4993079;28;20590;-89
2023/05/24 05:11:18;;;;;;;1.23;1.17;;;11.10;99.90;;;;;;4977091;28;20215;-91
2023/05/24 05:13:44;;;;;;;1.20;1.13;;;11.20;99.90;;;;;;4977148;28;20624;-90
2023/05/24 05:16:10;;;;;;;1.57;1.10;;;11.20;99.90;;;;;;4994144;28;20218;-89
2023/05/24 05:18:36;;;;;;;6.67;0.70;;;11.20;99.90;;;;;;4975942;28;20230;-89
2023/05/24 05:21:02;;;;;;;2.80;1.30;;;11.30;99.90;;;;;;4992002;28;20227;-88
2023/05/24 05:23:29;;;;;;;0.70;0.70;;;11.30;99.90;;;;;;5009091;28;20219;-88
2023/05/24 05:25:57;;;;;;;5.50;1.13;;;11.80;99.90;;;;;;5009972;28;20176;-91
2023/05/24 05:28:23;;;;;;;3.40;1.37;;;11.90;99.90;;;;;;4976995;28;20269;-88
2023/05/24 05:30:49;;;;;;;1.13;1.13;;;11.70;99.90;;;;;;5008710;28;20290;-89
2023/05/24 05:33:15;;;;;;;1.27;1.17;;;11.80;99.90;;;;;;4993108;28;20242;-88
2023/05/24 05:35:41;;;;;;;12.97;2.00;;;11.90;99.90;;;;;;4993268;28;20233;-89
2023/05/24 05:38:06;;;;;;;1.20;0.80;;;12.40;99.90;;;;;;4992366;28;20254;-89
2023/05/24 05:40:32;;;;;;;4.67;1.43;;;12.70;99.90;;;;;;4977459;28;20187;-85
2023/05/24 05:42:58;;;;;;;1.60;1.27;;;12.30;99.90;;;;;;4993009;28;20219;-90
2023/05/24 05:45:24;;;;;;;1.33;0.80;;;12.00;99.90;;;;;;4960238;28;20219;-91
2023/05/24 05:47:50;;;;;;;9.00;3.70;;;11.90;99.90;;;;;;4976109;28;20273;-91
2023/05/24 05:50:16;;;;;;;3.13;1.87;;;11.90;99.90;;;;;;4976589;28;20222;-88
2023/05/24 05:52:41;;;;;;;3.97;1.47;;;11.80;99.90;;;;;;4994592;28;20176;-92
2023/05/24 05:55:08;;;;;;;1.20;0.80;;;11.80;99.90;;;;;;4965303;28;20229;-90
2023/05/24 05:57:34;;;;;;;1.10;1.10;;;12.10;99.90;;;;;;4997194;28;20245;-90
2023/05/24 06:00:00;;;;;;;1.00;0.70;;;12.00;99.90;;;;;;4966093;28;20665;-89
2023/05/24 06:02:26;;;;;;;1.30;1.20;;;12.00;99.90;;;;;;4980636;28;20243;-89
2023/05/24 06:04:52;;;;;;;4.30;2.77;;;12.10;99.90;;;;;;4963791;28;20265;-88
2023/05/24 06:07:17;;;;;;;8.13;2.73;;;12.20;99.90;;;;;;4981278;28;20207;-89
2023/05/24 06:09:43;;;;;;;2.03;1.30;;;12.10;99.90;;;;;;4967154;28;20231;-91
2023/05/24 06:12:09;;;;;;;2.23;1.20;;;12.10;99.90;;;;;;4980424;28;20219;-90
2023/05/24 06:14:37;;;;;;;2.50;1.47;;;12.10;99.90;;;;;;4980442;28;20635;-90
2023/05/24 06:17:04;;;;;;;2.37;1.43;;;12.50;99.90;;;;;;4965273;28;20641;-90
2023/05/24 06:19:31;;;;;;;2.00;0.63;;;12.70;99.90;;;;;;4981094;28;20270;-90
2023/05/24 06:21:57;;;;;;;0.70;0.70;;;12.80;99.90;;;;;;4996639;28;20226;-88
2023/05/24 06:24:23;;;;;;;6.77;1.50;;;13.30;99.90;;;;;;4979629;28;20222;-90
2023/05/24 06:26:51;;;;;;;8.80;1.10;;;14.40;99.90;;;;;;4979011;28;20219;-90
2023/05/24 06:29:21;;;;;;;1.00;0.63;;;14.40;99.90;;;;;;5012034;28;20261;-91
2023/05/24 06:31:49;;;;;;;6.70;1.67;;;14.60;99.90;;;;;;4996110;28;20274;-91
2023/05/24 06:34:19;;;;;;;10.07;1.77;;;14.90;99.90;;;;;;4980229;28;20187;-89
2023/05/24 06:36:47;;;;;;;5.33;2.50;;;15.40;99.90;;;;;;4979584;28;20228;-90
2023/05/24 06:39:14;;;;;;;3.77;1.33;;;15.50;99.90;;;;;;5012615;28;20302;-89
2023/05/24 06:41:41;;;;;;;3.70;1.77;;;14.90;99.90;;;;;;4979327;28;20215;-91
2023/05/24 06:44:06;;;;;;;5.00;1.60;;;15.50;99.90;;;;;;4979364;28;20337;-91
2023/05/24 06:46:32;;;;;;;2.30;1.10;;;15.50;99.90;;;;;;4964259;28;20207;-91
2023/05/24 06:48:58;;;;;;;1.60;1.47;;;15.90;99.90;;;;;;4994451;28;20756;-91
2023/05/24 06:51:24;;;;;;;3.30;1.57;;;15.50;99.90;;;;;;4979485;28;20298;-90
2023/05/24 06:53:50;;;;;;;3.10;1.20;;;15.30;99.90;;;;;;4995385;28;20310;-91
2023/05/24 06:56:16;;;;;;;5.13;1.73;;;15.20;99.90;;;;;;5012386;28;20247;-91
2023/05/24 06:58:42;;;;;;;5.60;1.47;;;16.00;99.90;;;;;;4979576;28;20187;-92
2023/05/24 07:01:09;;;;;;;9.80;2.17;;;16.50;99.90;;;;;;4979538;28;20210;-90
2023/05/24 07:03:36;;;;;;;4.33;1.43;;;17.90;99.90;;;;;;4962759;28;20894;-90
2023/05/24 07:06:02;;;;;;;5.30;1.43;;;16.80;99.90;;;;;;4994847;28;20851;-90
2023/05/24 07:08:28;;;;;;;1.53;0.83;;;17.20;99.90;;;;;;5012397;28;20211;-91
2023/05/24 07:10:55;;;;;;;0.87;0.80;;;16.40;99.90;;;;;;4994714;28;20209;-90
2023/05/24 07:13:21;;;;;;;4.13;1.23;;;15.60;99.90;;;;;;4996049;28;20198;-90
2023/05/24 07:15:47;;;;;;;3.13;1.17;;;15.50;99.90;;;;;;4977761;28;20315;-90
2023/05/24 07:18:13;;;;;;;2.73;1.43;;;15.00;99.90;;;;;;4994443;28;20305;-88
2023/05/24 07:20:39;;;;;;;5.87;2.13;;;14.70;99.90;;;;;;4976220;28;20214;-90
2023/05/24 07:23:05;;;;;;;5.97;1.80;;;15.90;99.90;;;;;;4993371;28;20219;-89
2023/05/24 07:25:32;;;;;;;1.20;1.10;;;16.50;99.90;;;;;;4994889;28;20253;-90
2023/05/24 07:28:00;;;;;;;4.97;1.40;;;16.70;99.90;;;;;;4995546;28;20254;-89
2023/05/24 07:30:26;;;;;;;5.03;2.07;;;16.70;99.90;;;;;;4994669;28;20247;-87
2023/05/24 07:32:52;;;;;;;3.70;1.80;;;16.70;99.90;;;;;;4978533;28;20230;-89
2023/05/24 07:35:18;;;;;;;4.10;0.90;;;16.60;99.90;;;;;;4978685;28;20251;-91
2023/05/24 07:37:44;;;;;;;5.07;1.50;;;15.50;99.90;;;;;;4995016;28;20297;-89
2023/05/24 07:40:10;;;;;;;2.67;1.10;;;16.20;99.90;;;;;;4995898;28;20172;-89
2023/05/24 07:42:39;;;;;;;0.73;0.50;;;16.90;99.90;;;;;;4962670;28;20215;-88
2023/05/24 07:45:09;;;;;;;4.10;1.57;;;15.50;99.90;;;;;;4994746;28;20235;-87
2023/05/24 07:47:37;;;;;;;3.60;1.40;;;15.20;99.90;;;;;;5011865;28;20219;-89
2023/05/24 07:50:03;;;;;;;2.37;1.50;;;16.10;99.90;;;;;;4961166;28;20628;-88
2023/05/24 07:52:30;;;;;;;4.13;1.60;;;14.90;99.90;;;;;;4976248;28;20210;-85
2023/05/24 07:54:56;;;;;;;1.30;0.67;;;15.50;99.90;;;;;;5011175;28;20211;-90
2023/05/24 07:57:22;;;;;;;6.03;1.70;;;15.60;99.90;;;;;;4993003;28;20752;-85
2023/05/24 07:59:48;;;;;;;6.73;1.90;;;15.30;99.90;;;;;;4961230;28;20215;-86
2023/05/24 08:02:15;;;;;;;2.27;1.40;;;16.30;99.90;;;;;;4961093;28;20636;-85
2023/05/24 08:04:45;;;;;;;3.70;1.10;;;17.20;99.90;;;;;;4993276;28;20211;-88
2023/05/24 08:07:11;;;;;;;12.07;1.20;;;16.40;99.90;;;;;;4978424;28;20180;-87
2023/05/24 08:09:37;;;;;;;4.17;1.87;;;15.50;99.90;;;;;;4978063;28;20311;-87
2023/05/24 08:12:06;;;;;;;3.10;0.60;;;16.50;99.90;;;;;;4962068;28;20629;-87
2023/05/24 08:14:32;;;;;;;0.90;0.90;;;15.50;99.90;;;;;;4994046;28;20241;-89
2023/05/24 08:17:01;;;;;;;4.10;1.40;;;14.80;99.90;;;;;;4977369;28;20231;-86
2023/05/24 08:19:27;;;;;;;2.33;1.47;;;15.00;99.90;;;;;;4978279;28;20179;-87
2023/05/24 08:21:56;;;;;;;2.60;1.37;;;15.50;99.90;;;;;;4978332;28;20777;-88
2023/05/24 08:24:22;;;;;;;2.80;1.87;;;15.90;99.90;;;;;;4993941;28;20219;-89
2023/05/24 08:26:50;;;;;;;2.83;1.30;;;17.30;99.90;;;;;;4993904;28;20596;-87
2023/05/24 08:29:16;;;;;;;2.00;1.07;;;16.60;99.90;;;;;;4977858;28;20215;-88
2023/05/24 08:31:45;;;;;;;0.50;0.43;;;16.30;99.90;;;;;;4977411;28;20338;-87
2023/05/24 08:34:11;;;;;;;2.87;1.80;;;15.50;99.90;;;;;;4978187;28;20668;-88
2023/05/24 08:36:37;;;;;;;2.47;1.10;;;15.60;99.90;;;;;;4978162;28;20270;-90
2023/05/24 08:39:04;;;;;;;2.60;1.20;;;15.40;99.90;;;;;;4961930;28;20225;-89
2023/05/24 08:41:32;;;;;;;5.83;1.47;;;16.50;99.90;;;;;;4977235;28;20259;-87
2023/05/24 08:44:01;;;;;;;1.33;1.10;;;15.40;99.90;;;;;;5009819;28;20661;-89
2023/05/24 08:46:28;;;;;;;2.63;1.23;;;15.00;99.90;;;;;;4976637;28;20532;-87
2023/05/24 08:48:55;;;;;;;5.17;1.60;;;14.80;99.90;;;;;;4994089;28;20230;-89
2023/05/24 08:51:21;;;;;;;2.50;1.67;;;14.50;99.90;;;;;;4981587;28;20211;-89
2023/05/24 08:53:50;;;;;;;11.80;1.27;;;14.80;99.90;;;;;;4979397;28;20285;-87
2023/05/24 08:56:17;;;;;;;0.97;0.80;;;14.60;99.90;;;;;;4993731;28;20969;-89
2023/05/24 08:58:44;;;;;;;3.13;0.97;;;14.30;99.90;;;;;;4993225;28;20342;-87
2023/05/24 09:01:15;;;;;;;2.43;0.97;;;14.10;99.90;;;;;;5011477;28;20683;-86
2023/05/24 09:03:44;;;;;;;5.60;1.20;;;14.30;99.90;;;;;;4979048;28;20203;-89
2023/05/24 09:06:17;;;;;;;2.80;1.00;;;14.10;99.90;;;;;;4996469;28;20237;-88
2023/05/24 09:08:49;;;;;;;3.27;0.70;;;14.10;99.90;;;;;;4995948;28;20630;-88
2023/05/24 09:11:15;;;;;;;1.37;1.27;;;14.20;99.90;;;;;;4994790;28;20218;-89
2023/05/24 09:13:44;;;;;;;1.27;1.13;;;14.90;99.90;;;;;;4979137;28;20219;-89
2023/05/24 09:16:10;;;;;;;3.60;1.53;;;15.00;99.90;;;;;;4996006;28;20207;-92
2023/05/24 09:18:36;;;;;;;2.17;1.50;;;15.30;99.90;;;;;;4993974;28;20226;-91
2023/05/24 09:21:02;;;;;;;0.80;0.80;;;16.50;99.90;;;;;;4994106;28;20219;-90
2023/05/24 09:23:29;;;;;;;4.90;1.50;;;15.90;99.90;;;;;;4977797;28;20756;-88
2023/05/24 09:25:57;;;;;;;4.33;1.30;;;15.40;99.90;;;;;;4993628;28;20249;-87
2023/05/24 09:28:23;;;;;;;11.07;1.33;;;15.90;99.90;;;;;;4980834;28;20179;-87
2023/05/24 09:31:01;;;;;;;3.43;1.90;;;16.40;99.90;;;;;;4981765;28;20355;-88
2023/05/24 09:33:31;;;;;;;6.90;1.40;;;16.40;99.90;;;;;;4997313;28;20227;-89
2023/05/24 09:36:03;;;;;;;0.80;0.80;;;16.20;99.90;;;;;;4997161;28;20716;-88
2023/05/24 09:38:29;;;;;;;1.70;1.00;;;16.20;99.90;;;;;;4997734;28;20223;-88
2023/05/24 09:41:02;;;;;;;7.13;1.50;;;15.50;99.90;;;;;;4997311;28;20839;-88
2023/05/24 09:43:30;;;;;;;6.40;1.47;;;16.10;99.90;;;;;;4997809;28;20215;-88
2023/05/24 09:45:57;;;;;;;7.37;1.00;;;16.90;99.90;;;;;;4983139;28;20279;-90
2023/05/24 09:48:26;;;;;;;6.70;1.93;;;16.20;99.90;;;;;;4982050;28;20223;-89
2023/05/24 09:51:05;;;;;;;3.27;1.07;;;16.30;99.90;;;;;;4982119;28;20302;-90
2023/05/24 09:53:35;;;;;;;4.67;1.00;;;15.70;99.90;;;;;;4983139;28;20226;-89
2023/05/24 09:56:04;;;;;;;2.40;1.10;;;15.60;99.90;;;;;;4998251;28;20231;-88
2023/05/24 09:58:34;;;;;;;7.57;1.50;;;15.80;99.90;;;;;;4981600;28;20618;-88
2023/05/24 10:01:13;;;;;;;7.40;0.90;;;15.90;99.90;;;;;;4997818;28;20171;-88
2023/05/24 10:03:52;;;;;;;5.30;1.17;;;16.00;99.90;;;;;;4997431;28;20211;-88
2023/05/24 10:06:19;;;;;;;5.37;1.73;;;16.00;99.90;;;;;;5013618;28;20227;-85
2023/05/24 10:08:49;;;;;;;7.23;1.00;;;15.80;99.90;;;;;;4981726;28;20222;-84
2023/05/24 10:11:15;;;;;;;3.60;1.13;;;15.60;99.90;;;;;;5013710;28;20226;-87
2023/05/24 10:13:42;;;;;;;4.23;1.00;;;15.50;99.90;;;;;;4964314;28;20219;-85
2023/05/24 10:16:08;;;;;;;1.10;1.03;;;15.80;99.90;;;;;;4980720;28;20222;-86
2023/05/24 10:18:33;;;;;;;2.13;1.03;;;15.80;99.90;;;;;;4996335;28;20576;-88
2023/05/24 10:21:01;;;;;;;3.93;1.40;;;15.40;99.90;;;;;;4996342;28;20575;-86
2023/05/24 10:23:31;;;;;;;4.37;1.17;;;15.30;99.90;;;;;;4996434;28;20219;-85
2023/05/24 10:26:07;;;;;;;2.73;1.13;;;15.40;99.90;;;;;;4995512;28;20227;-86
2023/05/24 10:28:51;;;;;;;4.07;1.47;;;15.30;99.90;;;;;;4994339;28;20310;-85
2023/05/24 10:31:26;;;;;;;1.90;1.23;;;15.20;99.90;;;;;;4994181;28;20231;-85
2023/05/24 10:33:55;;;;;;;1.23;0.83;;;15.40;99.90;;;;;;5013183;28;20170;-88
2023/05/24 10:36:24;;;;;;;2.70;1.00;;;15.70;99.90;;;;;;5013228;28;20464;-85
2023/05/24 10:38:51;;;;;;;0.93;0.90;;;15.50;99.90;;;;;;4979386;28;20223;-85
2023/05/24 10:41:18;;;;;;;5.83;2.37;;;15.10;99.90;;;;;;4979505;28;20215;-84
2023/05/24 10:43:47;;;;;;;5.43;1.33;;;15.40;99.90;;;;;;4979893;28;20219;-84
2023/05/24 10:46:18;;;;;;;1.77;1.07;;;14.90;99.90;;;;;;4995880;28;20183;-83
2023/05/24 10:48:57;;;;;;;4.03;2.17;;;14.80;99.90;;;;;;4995984;28;20168;-83
2023/05/24 10:51:33;;;;;;;3.07;1.20;;;15.10;99.90;;;;;;4995159;28;20210;-84
2023/05/24 10:54:16;;;;;;;5.47;1.63;;;15.30;99.90;;;;;;4979095;28;20221;-84
2023/05/24 10:56:47;;;;;;;5.70;1.47;;;15.30;99.90;;;;;;4994469;28;20231;-84
2023/05/24 10:59:40;;;;;;;0.77;0.60;;;15.40;99.90;;;;;;4994175;28;20239;-85
2023/05/24 11:02:14;;;;;;;4.03;1.93;;;15.50;99.90;;;;;;4993711;28;20305;-85
2023/05/24 11:04:48;;;;;;;1.53;1.43;;;15.10;99.90;;;;;;4993735;28;20206;-85
2023/05/24 11:07:14;;;;;;;5.33;1.63;;;15.00;99.90;;;;;;5010890;28;20581;-87
2023/05/24 11:09:51;;;;;;;2.37;1.20;;;15.30;99.90;;;;;;4977638;28;20180;-90
2023/05/24 11:12:19;;;;;;;2.03;0.80;;;15.70;99.90;;;;;;4994152;28;20241;-88
2023/05/24 11:14:54;;;;;;;1.40;1.30;;;15.80;99.90;;;;;;5011308;28;20290;-87
2023/05/24 11:17:21;;;;;;;2.67;1.50;;;15.60;99.90;;;;;;4977458;28;20253;-85
2023/05/24 11:19:52;;;;;;;4.30;1.53;;;15.70;99.90;;;;;;4994120;28;20227;-83
2023/05/24 11:22:20;;;;;;;2.17;1.43;;;15.90;99.90;;;;;;4994378;28;20167;-89
2023/05/24 11:24:46;;;;;;;4.47;1.03;;;15.70;99.90;;;;;;4995216;28;20241;-85
2023/05/24 11:27:13;;;;;;;4.80;1.27;;;16.00;99.90;;;;;;4962835;28;20680;-84
2023/05/24 11:29:46;;;;;;;2.03;1.27;;;16.10;99.90;;;;;;4994352;28;20215;-85
2023/05/24 11:32:17;;;;;;;2.20;1.10;;;16.40;99.90;;;;;;4994508;28;20215;-82
2023/05/24 11:34:46;;;;;;;1.27;1.17;;;16.80;99.90;;;;;;5011803;28;20406;-84
2023/05/24 11:37:12;;;;;;;4.03;0.80;;;16.60;99.90;;;;;;4995349;28;20556;-85
2023/05/24 11:39:39;;;;;;;4.40;1.83;;;16.90;99.90;;;;;;4995037;28;20211;-85
2023/05/24 11:42:06;;;;;;;1.43;0.93;;;16.90;99.90;;;;;;4992843;28;20227;-82
2023/05/24 11:44:36;;;;;;;1.27;1.17;;;16.70;99.90;;;;;;4976497;28;20226;-85
2023/05/24 11:47:07;;;;;;;0.90;0.90;;;16.70;99.90;;;;;;4993088;28;20230;-83
2023/05/24 11:49:33;;;;;;;1.83;1.30;;;16.40;99.90;;;;;;4991416;28;21206;-83
2023/05/24 11:52:00;;;;;;;1.77;1.27;;;16.60;99.90;;;;;;5009146;28;20624;-83
2023/05/24 11:54:27;;;;;;;9.53;1.37;;;16.40;99.90;;;;;;4996389;28;20219;-92
2023/05/24 11:56:54;;;;;;;2.03;0.90;;;16.10;99.90;;;;;;5003965;28;20293;-85
2023/05/24 11:59:23;;;;;;;2.30;2.10;;;16.10;99.90;;;;;;4988889;28;20227;-85
2023/05/24 12:01:56;;;;;;;2.87;1.03;;;16.00;99.90;;;;;;4993574;28;20286;-89
2023/05/24 12:04:22;;;;;;;2.87;1.37;;;16.10;99.90;;;;;;5011881;28;20184;-83
2023/05/24 12:06:48;;;;;;;6.40;1.70;;;16.30;99.90;;;;;;4961661;28;20179;-84
2023/05/24 12:09:14;;;;;;;2.80;0.97;;;16.50;99.90;;;;;;4961754;28;20865;-87
2023/05/24 12:11:42;;;;;;;3.23;1.17;;;16.30;99.90;;;;;;4994098;28;20223;-82
2023/05/24 12:14:15;;;;;;;5.20;1.60;;;16.30;99.90;;;;;;4993450;28;20215;-88
2023/05/24 12:16:43;;;;;;;3.17;1.40;;;16.00;99.90;;;;;;4977520;28;20242;-91
2023/05/24 12:19:16;;;;;;;11.00;1.13;;;16.30;99.90;;;;;;4993127;28;20270;-83
2023/05/24 12:21:42;;;;;;;2.40;1.47;;;15.80;99.90;;;;;;4991928;28;20334;-91
2023/05/24 12:24:13;;;;;;;2.87;1.20;;;15.90;99.90;;;;;;5006493;28;20694;-90
2023/05/24 12:26:43;;;;;;;2.27;1.23;;;16.00;99.90;;;;;;4991448;28;20385;-81
2023/05/24 12:29:11;;;;;;;3.57;1.30;;;15.90;99.90;;;;;;4991822;28;20216;-85
2023/05/24 12:31:40;;;;;;;5.13;1.07;;;16.10;99.90;;;;;;4993535;28;20305;-89
2023/05/24 12:34:07;;;;;;;2.23;1.20;;;16.00;99.90;;;;;;4977988;28;20183;-88
2023/05/24 12:36:35;;;;;;;3.63;1.53;;;16.00;99.90;;;;;;4994560;28;20238;-84
2023/05/24 12:39:16;;;;;;;1.70;1.17;;;16.30;99.90;;;;;;4995513;28;20223;-82
2023/05/24 12:41:42;;;;;;;0.67;0.67;;;16.30;99.90;;;;;;5001199;28;20235;-84
2023/05/24 12:44:10;;;;;;;0.80;0.70;;;16.20;99.90;;;;;;4980201;28;20565;-87
2023/05/24 12:46:36;;;;;;;3.27;1.50;;;16.20;99.90;;;;;;5017204;28;20223;-85
2023/05/24 12:49:03;;;;;;;1.10;1.10;;;16.20;99.90;;;;;;4995996;28;20187;-89
2023/05/24 12:51:30;;;;;;;3.23;1.23;;;16.10;99.90;;;;;;4994326;28;20230;-89